sensor_id;sensor_type;location;lat;lon;timestamp;temperature;humidity
19164;DHT22;9714;51.208;4.242;2023-09-19T00:01:07;16.60;99.90
19164;DHT22;9714;51.208;4.242;2023-09-19T00:03:37;16.60;99.90
19164;DHT22;9714;51.208;4.242;2023-09-19T00:06:05;16.40;99.90
19164;DHT22;9714;51.208;4.242;2023-09-19T00:08:33;16.50;99.90
19164;DHT22;9714;51.208;4.242;2023-09-19T00:11:01;16.50;99.90
19164;DHT22;9714;51.208;4.242;2023-09-19T00:13:30;16.60;99.90
19164;DHT22;9714;51.208;4.242;2023-09-19T00:15:57;16.60;99.90
19164;DHT22;9714;51.208;4.242;2023-09-19T00:18:27;16.60;99.90
19164;DHT22;9714;51.208;4.242;2023-09-19T00:20:59;16.60;99.90
19164;DHT22;9714;51.208;4.242;2023-09-19T00:23:26;16.70;99.90
19164;DHT22;9714;51.208;4.242;2023-09-19T00:25:54;16.60;99.90
19164;DHT22;9714;51.208;4.242;2023-09-19T00:28:25;16.50;99.90
19164;DHT22;9714;51.208;4.242;2023-09-19T00:30:52;16.40;99.90
19164;DHT22;9714;51.208;4.242;2023-09-19T00:33:21;16.60;99.90
19164;DHT22;9714;51.208;4.242;2023-09-19T00:35:48;16.50;99.90
19164;DHT22;9714;51.208;4.242;2023-09-19T00:38:18;16.60;99.90
19164;DHT22;9714;51.208;4.242;2023-09-19T00:40:48;16.60;99.90
19164;DHT22;9714;51.208;4.242;2023-09-19T00:43:17;16.50;99.90
19164;DHT22;9714;51.208;4.242;2023-09-19T00:45:46;16.60;99.90
19164;DHT22;9714;51.208;4.242;2023-09-19T00:48:20;16.50;99.90
19164;DHT22;9714;51.208;4.242;2023-09-19T00:50:49;16.40;99.90
19164;DHT22;9714;51.208;4.242;2023-09-19T00:53:20;16.40;99.90
19164;DHT22;9714;51.208;4.242;2023-09-19T00:55:51;16.40;99.90
19164;DHT22;9714;51.208;4.242;2023-09-19T00:58:18;16.40;99.90
19164;DHT22;9714;51.208;4.242;2023-09-19T01:00:47;16.40;99.90
19164;DHT22;9714;51.208;4.242;2023-09-19T01:03:14;16.30;99.90
19164;DHT22;9714;51.208;4.242;2023-09-19T01:05:42;16.40;99.90
19164;DHT22;9714;51.208;4.242;2023-09-19T01:08:10;16.40;99.90
19164;DHT22;9714;51.208;4.242;2023-09-19T01:10:44;16.30;99.90
19164;DHT22;9714;51.208;4.242;2023-09-19T01:13:21;16.30;99.90
19164;DHT22;9714;51.208;4.242;2023-09-19T01:15:59;16.30;99.90
19164;DHT22;9714;51.208;4.242;2023-09-19T01:18:39;16.30;99.90
19164;DHT22;9714;51.208;4.242;2023-09-19T01:21:14;16.20;99.90
19164;DHT22;9714;51.208;4.242;2023-09-19T01:24:10;16.10;99.90
19164;DHT22;9714;51.208;4.242;2023-09-19T01:27:18;16.20;99.90
19164;DHT22;9714;51.208;4.242;2023-09-19T01:29:50;16.30;99.90
19164;DHT22;9714;51.208;4.242;2023-09-19T01:32:22;16.20;99.90
19164;DHT22;9714;51.208;4.242;2023-09-19T01:34:52;16.10;99.90
19164;DHT22;9714;51.208;4.242;2023-09-19T01:37:20;16.10;99.90
19164;DHT22;9714;51.208;4.242;2023-09-19T01:39:55;16.00;99.90
19164;DHT22;9714;51.208;4.242;2023-09-19T01:42:31;16.10;99.90
19164;DHT22;9714;51.208;4.242;2023-09-19T01:45:06;16.10;99.90
19164;DHT22;9714;51.208;4.242;2023-09-19T01:47:46;16.10;99.90
19164;DHT22;9714;51.208;4.242;2023-09-19T01:50:31;16.10;99.90
19164;DHT22;9714;51.208;4.242;2023-09-19T01:53:04;15.90;99.90
19164;DHT22;9714;51.208;4.242;2023-09-19T01:55:40;16.10;99.90
19164;DHT22;9714;51.208;4.242;2023-09-19T01:58:16;16.10;99.90
19164;DHT22;9714;51.208;4.242;2023-09-19T02:00:46;15.90;99.90
19164;DHT22;9714;51.208;4.242;2023-09-19T02:03:21;15.90;99.90
19164;DHT22;9714;51.208;4.242;2023-09-19T02:05:49;15.80;99.90
19164;DHT22;9714;51.208;4.242;2023-09-19T02:08:17;15.90;99.90
19164;DHT22;9714;51.208;4.242;2023-09-19T02:10:45;15.90;99.90
19164;DHT22;9714;51.208;4.242;2023-09-19T02:13:21;15.80;99.90
19164;DHT22;9714;51.208;4.242;2023-09-19T02:15:49;15.80;99.90
19164;DHT22;9714;51.208;4.242;2023-09-19T02:18:16;15.80;99.90
19164;DHT22;9714;51.208;4.242;2023-09-19T02:20:45;15.80;99.90
19164;DHT22;9714;51.208;4.242;2023-09-19T02:23:14;15.60;99.90
19164;DHT22;9714;51.208;4.242;2023-09-19T02:25:42;15.80;99.90
19164;DHT22;9714;51.208;4.242;2023-09-19T02:28:11;15.70;99.90
19164;DHT22;9714;51.208;4.242;2023-09-19T02:30:39;15.70;99.90
19164;DHT22;9714;51.208;4.242;2023-09-19T02:33:06;15.70;99.90
19164;DHT22;9714;51.208;4.242;2023-09-19T02:35:35;15.70;99.90
19164;DHT22;9714;51.208;4.242;2023-09-19T02:38:03;15.80;99.90
19164;DHT22;9714;51.208;4.242;2023-09-19T02:40:33;15.80;99.90
19164;DHT22;9714;51.208;4.242;2023-09-19T02:43:01;15.70;99.90
19164;DHT22;9714;51.208;4.242;2023-09-19T02:45:30;15.60;99.90
19164;DHT22;9714;51.208;4.242;2023-09-19T02:47:57;15.80;99.90
19164;DHT22;9714;51.208;4.242;2023-09-19T02:50:26;15.80;99.90
19164;DHT22;9714;51.208;4.242;2023-09-19T02:52:53;15.90;99.90
19164;DHT22;9714;51.208;4.242;2023-09-19T02:55:22;15.80;99.90
19164;DHT22;9714;51.208;4.242;2023-09-19T02:57:51;15.90;99.90
19164;DHT22;9714;51.208;4.242;2023-09-19T03:00:21;15.90;99.90
19164;DHT22;9714;51.208;4.242;2023-09-19T03:02:48;15.90;99.90
19164;DHT22;9714;51.208;4.242;2023-09-19T03:05:17;15.90;99.90
19164;DHT22;9714;51.208;4.242;2023-09-19T03:07:44;16.00;99.90
19164;DHT22;9714;51.208;4.242;2023-09-19T03:10:13;15.90;99.90
19164;DHT22;9714;51.208;4.242;2023-09-19T03:12:43;16.00;99.90
19164;DHT22;9714;51.208;4.242;2023-09-19T03:15:10;16.10;99.90
19164;DHT22;9714;51.208;4.242;2023-09-19T03:17:37;16.00;99.90
19164;DHT22;9714;51.208;4.242;2023-09-19T03:20:05;16.00;99.90
19164;DHT22;9714;51.208;4.242;2023-09-19T03:22:35;16.20;99.90
19164;DHT22;9714;51.208;4.242;2023-09-19T03:25:02;16.20;99.90
19164;DHT22;9714;51.208;4.242;2023-09-19T03:27:33;16.30;99.90
19164;DHT22;9714;51.208;4.242;2023-09-19T03:30:02;16.20;99.90
19164;DHT22;9714;51.208;4.242;2023-09-19T03:32:32;16.20;99.90
19164;DHT22;9714;51.208;4.242;2023-09-19T03:35:00;16.30;99.90
19164;DHT22;9714;51.208;4.242;2023-09-19T03:37:28;16.20;99.90
19164;DHT22;9714;51.208;4.242;2023-09-19T03:39:55;16.10;99.90
19164;DHT22;9714;51.208;4.242;2023-09-19T03:42:23;16.00;99.90
19164;DHT22;9714;51.208;4.242;2023-09-19T03:44:52;16.10;99.90
19164;DHT22;9714;51.208;4.242;2023-09-19T03:47:23;16.00;99.90
19164;DHT22;9714;51.208;4.242;2023-09-19T03:49:50;16.00;99.90
19164;DHT22;9714;51.208;4.242;2023-09-19T03:52:18;16.00;99.90
19164;DHT22;9714;51.208;4.242;2023-09-19T03:54:45;15.90;99.90
19164;DHT22;9714;51.208;4.242;2023-09-19T03:57:12;15.90;99.90
19164;DHT22;9714;51.208;4.242;2023-09-19T03:59:41;15.90;99.90
19164;DHT22;9714;51.208;4.242;2023-09-19T04:02:09;15.90;99.90
19164;DHT22;9714;51.208;4.242;2023-09-19T04:04:49;15.80;99.90
19164;DHT22;9714;51.208;4.242;2023-09-19T04:07:17;15.80;99.90
19164;DHT22;9714;51.208;4.242;2023-09-19T04:09:44;15.80;99.90
19164;DHT22;9714;51.208;4.242;2023-09-19T04:12:12;15.90;99.90
19164;DHT22;9714;51.208;4.242;2023-09-19T04:14:42;15.70;99.90
19164;DHT22;9714;51.208;4.242;2023-09-19T04:17:09;15.80;99.90
19164;DHT22;9714;51.208;4.242;2023-09-19T04:19:37;15.80;99.90
19164;DHT22;9714;51.208;4.242;2023-09-19T04:22:06;15.70;99.90
19164;DHT22;9714;51.208;4.242;2023-09-19T04:24:33;15.70;99.90
19164;DHT22;9714;51.208;4.242;2023-09-19T04:27:00;15.70;99.90
19164;DHT22;9714;51.208;4.242;2023-09-19T04:29:28;15.60;99.90
19164;DHT22;9714;51.208;4.242;2023-09-19T04:31:56;15.70;99.90
19164;DHT22;9714;51.208;4.242;2023-09-19T04:34:23;15.70;99.90
19164;DHT22;9714;51.208;4.242;2023-09-19T04:36:51;15.60;99.90
19164;DHT22;9714;51.208;4.242;2023-09-19T04:39:20;15.60;99.90
19164;DHT22;9714;51.208;4.242;2023-09-19T04:41:51;15.70;99.90
19164;DHT22;9714;51.208;4.242;2023-09-19T04:44:19;15.70;99.90
19164;DHT22;9714;51.208;4.242;2023-09-19T04:46:47;15.60;99.90
19164;DHT22;9714;51.208;4.242;2023-09-19T04:49:14;15.60;99.90
19164;DHT22;9714;51.208;4.242;2023-09-19T04:51:41;15.40;99.90
19164;DHT22;9714;51.208;4.242;2023-09-19T04:54:09;15.60;99.90
19164;DHT22;9714;51.208;4.242;2023-09-19T04:56:37;15.50;99.90
19164;DHT22;9714;51.208;4.242;2023-09-19T04:59:06;15.60;99.90
19164;DHT22;9714;51.208;4.242;2023-09-19T05:01:33;15.50;99.90
19164;DHT22;9714;51.208;4.242;2023-09-19T05:04:00;15.50;99.90
19164;DHT22;9714;51.208;4.242;2023-09-19T05:06:28;15.40;99.90
19164;DHT22;9714;51.208;4.242;2023-09-19T05:08:58;15.60;99.90
19164;DHT22;9714;51.208;4.242;2023-09-19T05:11:26;15.60;99.90
19164;DHT22;9714;51.208;4.242;2023-09-19T05:13:57;15.50;99.90
19164;DHT22;9714;51.208;4.242;2023-09-19T05:16:28;15.50;99.90
19164;DHT22;9714;51.208;4.242;2023-09-19T05:18:57;15.50;99.90
19164;DHT22;9714;51.208;4.242;2023-09-19T05:21:25;15.30;99.90
19164;DHT22;9714;51.208;4.242;2023-09-19T05:23:54;15.40;99.90
19164;DHT22;9714;51.208;4.242;2023-09-19T05:26:22;15.40;99.90
19164;DHT22;9714;51.208;4.242;2023-09-19T05:28:49;15.50;99.90
19164;DHT22;9714;51.208;4.242;2023-09-19T05:31:17;15.40;99.90
19164;DHT22;9714;51.208;4.242;2023-09-19T05:33:44;15.50;99.90
19164;DHT22;9714;51.208;4.242;2023-09-19T05:36:14;15.40;99.90
19164;DHT22;9714;51.208;4.242;2023-09-19T05:38:42;15.50;99.90
19164;DHT22;9714;51.208;4.242;2023-09-19T05:41:10;15.50;99.90
19164;DHT22;9714;51.208;4.242;2023-09-19T05:43:39;15.60;99.90
19164;DHT22;9714;51.208;4.242;2023-09-19T05:46:06;15.60;99.90
19164;DHT22;9714;51.208;4.242;2023-09-19T05:48:41;15.50;99.90
19164;DHT22;9714;51.208;4.242;2023-09-19T05:51:10;15.40;99.90
19164;DHT22;9714;51.208;4.242;2023-09-19T05:53:37;15.50;99.90
19164;DHT22;9714;51.208;4.242;2023-09-19T05:56:05;15.50;99.90
19164;DHT22;9714;51.208;4.242;2023-09-19T05:58:32;15.40;99.90
19164;DHT22;9714;51.208;4.242;2023-09-19T06:00:59;15.50;99.90
19164;DHT22;9714;51.208;4.242;2023-09-19T06:03:27;15.60;99.90
19164;DHT22;9714;51.208;4.242;2023-09-19T06:05:59;15.60;99.90
19164;DHT22;9714;51.208;4.242;2023-09-19T06:08:26;15.60;99.90
19164;DHT22;9714;51.208;4.242;2023-09-19T06:10:54;15.70;99.90
19164;DHT22;9714;51.208;4.242;2023-09-19T06:13:21;15.80;99.90
19164;DHT22;9714;51.208;4.242;2023-09-19T06:15:49;15.60;99.90
19164;DHT22;9714;51.208;4.242;2023-09-19T06:18:16;15.50;99.90
19164;DHT22;9714;51.208;4.242;2023-09-19T06:20:46;15.50;99.90
19164;DHT22;9714;51.208;4.242;2023-09-19T06:23:14;15.70;99.90
19164;DHT22;9714;51.208;4.242;2023-09-19T06:25:42;15.70;99.90
19164;DHT22;9714;51.208;4.242;2023-09-19T06:28:10;15.80;99.90
19164;DHT22;9714;51.208;4.242;2023-09-19T06:30:40;15.80;99.90
19164;DHT22;9714;51.208;4.242;2023-09-19T06:33:08;15.80;99.90
19164;DHT22;9714;51.208;4.242;2023-09-19T06:35:38;15.70;99.90
19164;DHT22;9714;51.208;4.242;2023-09-19T06:38:06;15.80;99.90
19164;DHT22;9714;51.208;4.242;2023-09-19T06:40:35;15.90;99.90
19164;DHT22;9714;51.208;4.242;2023-09-19T06:43:03;16.00;99.90
19164;DHT22;9714;51.208;4.242;2023-09-19T06:45:32;16.10;99.90
19164;DHT22;9714;51.208;4.242;2023-09-19T06:47:59;16.10;99.90
19164;DHT22;9714;51.208;4.242;2023-09-19T06:50:28;16.10;99.90
19164;DHT22;9714;51.208;4.242;2023-09-19T06:52:57;16.30;99.90
19164;DHT22;9714;51.208;4.242;2023-09-19T06:55:25;16.20;99.90
19164;DHT22;9714;51.208;4.242;2023-09-19T06:57:55;16.10;99.90
19164;DHT22;9714;51.208;4.242;2023-09-19T07:00:22;16.00;99.90
19164;DHT22;9714;51.208;4.242;2023-09-19T07:02:57;16.10;99.90
19164;DHT22;9714;51.208;4.242;2023-09-19T07:05:27;16.00;99.90
19164;DHT22;9714;51.208;4.242;2023-09-19T07:07:55;16.20;99.90
19164;DHT22;9714;51.208;4.242;2023-09-19T07:10:22;16.40;99.90
19164;DHT22;9714;51.208;4.242;2023-09-19T07:12:59;16.40;99.90
19164;DHT22;9714;51.208;4.242;2023-09-19T07:15:29;16.50;99.90
19164;DHT22;9714;51.208;4.242;2023-09-19T07:17:56;16.70;99.90
19164;DHT22;9714;51.208;4.242;2023-09-19T07:20:24;16.80;99.90
19164;DHT22;9714;51.208;4.242;2023-09-19T07:22:52;16.80;99.90
19164;DHT22;9714;51.208;4.242;2023-09-19T07:25:20;16.90;99.90
19164;DHT22;9714;51.208;4.242;2023-09-19T07:27:47;17.10;99.90
19164;DHT22;9714;51.208;4.242;2023-09-19T07:30:17;17.10;99.90
19164;DHT22;9714;51.208;4.242;2023-09-19T07:32:44;17.30;99.90
19164;DHT22;9714;51.208;4.242;2023-09-19T07:35:11;17.50;99.90
19164;DHT22;9714;51.208;4.242;2023-09-19T07:37:39;17.50;99.90
19164;DHT22;9714;51.208;4.242;2023-09-19T07:40:06;17.80;99.90
19164;DHT22;9714;51.208;4.242;2023-09-19T07:42:35;17.80;99.90
19164;DHT22;9714;51.208;4.242;2023-09-19T07:45:07;18.10;99.90
19164;DHT22;9714;51.208;4.242;2023-09-19T07:47:36;18.10;99.90
19164;DHT22;9714;51.208;4.242;2023-09-19T07:50:04;18.00;99.90
19164;DHT22;9714;51.208;4.242;2023-09-19T07:52:33;18.30;99.90
19164;DHT22;9714;51.208;4.242;2023-09-19T07:55:00;18.40;99.90
19164;DHT22;9714;51.208;4.242;2023-09-19T07:57:33;18.40;99.90
19164;DHT22;9714;51.208;4.242;2023-09-19T08:00:01;18.50;99.90
19164;DHT22;9714;51.208;4.242;2023-09-19T08:02:33;18.70;99.90
19164;DHT22;9714;51.208;4.242;2023-09-19T08:05:02;18.90;99.90
19164;DHT22;9714;51.208;4.242;2023-09-19T08:07:32;19.20;99.90
19164;DHT22;9714;51.208;4.242;2023-09-19T08:09:59;19.60;99.90
19164;DHT22;9714;51.208;4.242;2023-09-19T08:12:26;19.90;99.90
19164;DHT22;9714;51.208;4.242;2023-09-19T08:14:53;19.80;99.90
19164;DHT22;9714;51.208;4.242;2023-09-19T08:17:22;20.00;99.90
19164;DHT22;9714;51.208;4.242;2023-09-19T08:19:51;20.00;99.90
19164;DHT22;9714;51.208;4.242;2023-09-19T08:22:20;20.30;99.90
19164;DHT22;9714;51.208;4.242;2023-09-19T08:24:49;20.90;99.90
19164;DHT22;9714;51.208;4.242;2023-09-19T08:27:16;21.50;99.90
19164;DHT22;9714;51.208;4.242;2023-09-19T08:29:45;21.80;99.90
19164;DHT22;9714;51.208;4.242;2023-09-19T08:32:13;21.90;99.90
19164;DHT22;9714;51.208;4.242;2023-09-19T08:34:40;21.70;99.90
19164;DHT22;9714;51.208;4.242;2023-09-19T08:37:08;21.00;99.90
19164;DHT22;9714;51.208;4.242;2023-09-19T08:39:40;20.70;99.90
19164;DHT22;9714;51.208;4.242;2023-09-19T08:42:08;20.60;99.90
19164;DHT22;9714;51.208;4.242;2023-09-19T08:44:37;20.70;99.90
19164;DHT22;9714;51.208;4.242;2023-09-19T08:47:09;21.00;99.90
19164;DHT22;9714;51.208;4.242;2023-09-19T08:49:44;21.00;99.90
19164;DHT22;9714;51.208;4.242;2023-09-19T08:52:20;20.80;99.90
19164;DHT22;9714;51.208;4.242;2023-09-19T08:54:52;20.50;99.90
19164;DHT22;9714;51.208;4.242;2023-09-19T08:57:20;20.80;99.90
19164;DHT22;9714;51.208;4.242;2023-09-19T08:59:48;20.70;99.90
19164;DHT22;9714;51.208;4.242;2023-09-19T09:02:16;20.60;99.90
19164;DHT22;9714;51.208;4.242;2023-09-19T09:04:46;20.50;99.90
19164;DHT22;9714;51.208;4.242;2023-09-19T09:07:14;20.40;99.90
19164;DHT22;9714;51.208;4.242;2023-09-19T09:09:42;20.40;99.90
19164;DHT22;9714;51.208;4.242;2023-09-19T09:12:13;20.50;99.90
19164;DHT22;9714;51.208;4.242;2023-09-19T09:14:44;20.60;99.90
19164;DHT22;9714;51.208;4.242;2023-09-19T09:17:15;20.80;99.90
19164;DHT22;9714;51.208;4.242;2023-09-19T09:19:46;21.00;99.90
19164;DHT22;9714;51.208;4.242;2023-09-19T09:22:13;21.20;99.90
19164;DHT22;9714;51.208;4.242;2023-09-19T09:24:51;21.40;99.90
19164;DHT22;9714;51.208;4.242;2023-09-19T09:27:21;21.60;99.90
19164;DHT22;9714;51.208;4.242;2023-09-19T09:29:51;21.60;99.90
19164;DHT22;9714;51.208;4.242;2023-09-19T09:32:22;21.90;99.90
19164;DHT22;9714;51.208;4.242;2023-09-19T09:34:52;21.70;99.90
19164;DHT22;9714;51.208;4.242;2023-09-19T09:37:21;21.90;99.90
19164;DHT22;9714;51.208;4.242;2023-09-19T09:39:51;22.40;99.90
19164;DHT22;9714;51.208;4.242;2023-09-19T09:42:33;22.70;99.90
19164;DHT22;9714;51.208;4.242;2023-09-19T09:45:15;23.30;99.90
19164;DHT22;9714;51.208;4.242;2023-09-19T09:47:47;23.60;99.90
19164;DHT22;9714;51.208;4.242;2023-09-19T09:50:27;23.80;99.90
19164;DHT22;9714;51.208;4.242;2023-09-19T09:53:04;24.00;99.90
19164;DHT22;9714;51.208;4.242;2023-09-19T09:55:57;24.60;99.90
19164;DHT22;9714;51.208;4.242;2023-09-19T09:58:29;24.60;99.90
19164;DHT22;9714;51.208;4.242;2023-09-19T10:00:57;25.00;99.90
19164;DHT22;9714;51.208;4.242;2023-09-19T10:03:32;24.70;99.90
19164;DHT22;9714;51.208;4.242;2023-09-19T10:06:06;25.10;99.90
19164;DHT22;9714;51.208;4.242;2023-09-19T10:09:01;25.00;99.90
19164;DHT22;9714;51.208;4.242;2023-09-19T10:11:43;24.80;99.90
19164;DHT22;9714;51.208;4.242;2023-09-19T10:14:14;25.00;99.90
19164;DHT22;9714;51.208;4.242;2023-09-19T10:16:45;25.70;99.90
19164;DHT22;9714;51.208;4.242;2023-09-19T10:19:19;25.70;99.90
19164;DHT22;9714;51.208;4.242;2023-09-19T10:21:50;25.20;99.30
19164;DHT22;9714;51.208;4.242;2023-09-19T10:24:22;25.70;98.80
19164;DHT22;9714;51.208;4.242;2023-09-19T10:26:53;25.50;98.50
19164;DHT22;9714;51.208;4.242;2023-09-19T10:29:24;25.30;99.30
19164;DHT22;9714;51.208;4.242;2023-09-19T10:31:55;25.60;99.10
19164;DHT22;9714;51.208;4.242;2023-09-19T10:34:25;26.60;98.30
19164;DHT22;9714;51.208;4.242;2023-09-19T10:36:54;26.10;97.40
19164;DHT22;9714;51.208;4.242;2023-09-19T10:39:23;25.40;97.80
19164;DHT22;9714;51.208;4.242;2023-09-19T10:41:53;25.20;99.30
19164;DHT22;9714;51.208;4.242;2023-09-19T10:44:24;26.10;98.70
19164;DHT22;9714;51.208;4.242;2023-09-19T10:46:52;26.30;96.90
19164;DHT22;9714;51.208;4.242;2023-09-19T10:49:21;26.00;96.30
19164;DHT22;9714;51.208;4.242;2023-09-19T10:51:57;25.60;97.20
19164;DHT22;9714;51.208;4.242;2023-09-19T10:54:32;25.90;97.20
19164;DHT22;9714;51.208;4.242;2023-09-19T10:57:03;25.80;97.30
19164;DHT22;9714;51.208;4.242;2023-09-19T11:00:02;25.20;98.00
19164;DHT22;9714;51.208;4.242;2023-09-19T11:03:19;24.90;98.40
19164;DHT22;9714;51.208;4.242;2023-09-19T11:06:02;25.30;98.30
19164;DHT22;9714;51.208;4.242;2023-09-19T11:08:31;25.30;98.00
19164;DHT22;9714;51.208;4.242;2023-09-19T11:11:48;25.80;97.60
19164;DHT22;9714;51.208;4.242;2023-09-19T11:14:29;26.40;97.00
19164;DHT22;9714;51.208;4.242;2023-09-19T11:20:22;27.10;94.80
19164;DHT22;9714;51.208;4.242;2023-09-19T11:23:20;26.80;94.10
19164;DHT22;9714;51.208;4.242;2023-09-19T11:25:51;26.20;94.90
19164;DHT22;9714;51.208;4.242;2023-09-19T11:28:35;26.10;94.40
19164;DHT22;9714;51.208;4.242;2023-09-19T11:34:40;25.20;95.50
19164;DHT22;9714;51.208;4.242;2023-09-19T11:40:45;23.90;98.80
19164;DHT22;9714;51.208;4.242;2023-09-19T11:43:33;23.40;99.70
19164;DHT22;9714;51.208;4.242;2023-09-19T11:46:06;23.80;99.90
19164;DHT22;9714;51.208;4.242;2023-09-19T11:48:35;24.20;99.40
19164;DHT22;9714;51.208;4.242;2023-09-19T11:51:17;24.20;99.60
19164;DHT22;9714;51.208;4.242;2023-09-19T11:53:51;23.60;99.90
19164;DHT22;9714;51.208;4.242;2023-09-19T11:56:21;23.40;99.90
19164;DHT22;9714;51.208;4.242;2023-09-19T11:58:51;23.60;99.90
19164;DHT22;9714;51.208;4.242;2023-09-19T12:01:28;24.20;99.90
19164;DHT22;9714;51.208;4.242;2023-09-19T12:03:57;24.30;99.90
19164;DHT22;9714;51.208;4.242;2023-09-19T12:06:25;24.70;99.90
19164;DHT22;9714;51.208;4.242;2023-09-19T12:08:53;25.00;99.90
19164;DHT22;9714;51.208;4.242;2023-09-19T12:11:23;25.00;99.40
19164;DHT22;9714;51.208;4.242;2023-09-19T12:13:50;24.90;99.40
19164;DHT22;9714;51.208;4.242;2023-09-19T12:16:19;25.10;98.80
19164;DHT22;9714;51.208;4.242;2023-09-19T12:18:49;24.50;98.70
19164;DHT22;9714;51.208;4.242;2023-09-19T12:21:24;24.00;99.70
19164;DHT22;9714;51.208;4.242;2023-09-19T12:23:59;23.30;99.90
19164;DHT22;9714;51.208;4.242;2023-09-19T12:26:38;22.70;99.90
19164;DHT22;9714;51.208;4.242;2023-09-19T12:29:13;22.40;99.90
19164;DHT22;9714;51.208;4.242;2023-09-19T12:31:53;22.40;99.90
19164;DHT22;9714;51.208;4.242;2023-09-19T12:34:24;22.50;99.90
19164;DHT22;9714;51.208;4.242;2023-09-19T12:37:07;23.00;99.90
19164;DHT22;9714;51.208;4.242;2023-09-19T12:39:42;23.30;99.90
19164;DHT22;9714;51.208;4.242;2023-09-19T12:42:16;23.20;99.90
19164;DHT22;9714;51.208;4.242;2023-09-19T12:44:45;22.90;99.90
19164;DHT22;9714;51.208;4.242;2023-09-19T12:47:13;22.80;99.90
19164;DHT22;9714;51.208;4.242;2023-09-19T12:50:06;22.70;99.90
19164;DHT22;9714;51.208;4.242;2023-09-19T12:52:41;23.00;99.90
19164;DHT22;9714;51.208;4.242;2023-09-19T12:55:20;22.90;99.90
19164;DHT22;9714;51.208;4.242;2023-09-19T12:58:09;23.10;99.90
19164;DHT22;9714;51.208;4.242;2023-09-19T13:00:40;23.20;99.90
19164;DHT22;9714;51.208;4.242;2023-09-19T13:06:52;23.40;99.90
19164;DHT22;9714;51.208;4.242;2023-09-19T13:12:43;22.80;99.90
19164;DHT22;9714;51.208;4.242;2023-09-19T13:15:51;22.40;99.90
19164;DHT22;9714;51.208;4.242;2023-09-19T13:18:24;22.50;99.90
19164;DHT22;9714;51.208;4.242;2023-09-19T13:24:21;22.50;99.90
19164;DHT22;9714;51.208;4.242;2023-09-19T13:26:53;22.70;99.90
19164;DHT22;9714;51.208;4.242;2023-09-19T13:29:20;22.40;99.90
19164;DHT22;9714;51.208;4.242;2023-09-19T13:31:50;22.40;99.90
19164;DHT22;9714;51.208;4.242;2023-09-19T13:34:18;22.50;99.90
19164;DHT22;9714;51.208;4.242;2023-09-19T13:36:47;22.50;99.90
19164;DHT22;9714;51.208;4.242;2023-09-19T13:39:14;23.10;99.90
19164;DHT22;9714;51.208;4.242;2023-09-19T13:41:41;23.50;99.90
19164;DHT22;9714;51.208;4.242;2023-09-19T13:44:09;23.60;99.90
19164;DHT22;9714;51.208;4.242;2023-09-19T13:46:37;24.70;99.90
19164;DHT22;9714;51.208;4.242;2023-09-19T13:49:05;25.50;99.90
19164;DHT22;9714;51.208;4.242;2023-09-19T13:51:32;25.50;99.90
19164;DHT22;9714;51.208;4.242;2023-09-19T13:54:00;24.60;99.90
19164;DHT22;9714;51.208;4.242;2023-09-19T13:56:27;24.20;99.90
19164;DHT22;9714;51.208;4.242;2023-09-19T13:58:56;24.70;99.90
19164;DHT22;9714;51.208;4.242;2023-09-19T14:01:23;25.70;99.90
19164;DHT22;9714;51.208;4.242;2023-09-19T14:03:52;26.30;99.90
19164;DHT22;9714;51.208;4.242;2023-09-19T14:06:24;26.80;97.50
19164;DHT22;9714;51.208;4.242;2023-09-19T14:08:52;26.60;96.80
19164;DHT22;9714;51.208;4.242;2023-09-19T14:11:27;25.70;97.40
19164;DHT22;9714;51.208;4.242;2023-09-19T14:13:55;25.30;99.10
19164;DHT22;9714;51.208;4.242;2023-09-19T14:16:24;24.40;99.90
19164;DHT22;9714;51.208;4.242;2023-09-19T14:18:55;24.00;99.90
19164;DHT22;9714;51.208;4.242;2023-09-19T14:21:24;23.80;99.90
19164;DHT22;9714;51.208;4.242;2023-09-19T14:23:51;23.90;99.90
19164;DHT22;9714;51.208;4.242;2023-09-19T14:26:20;23.50;99.90
19164;DHT22;9714;51.208;4.242;2023-09-19T14:28:49;23.20;99.90
19164;DHT22;9714;51.208;4.242;2023-09-19T14:31:22;22.80;99.90
19164;DHT22;9714;51.208;4.242;2023-09-19T14:33:53;22.70;99.90
19164;DHT22;9714;51.208;4.242;2023-09-19T14:36:24;22.50;99.90
19164;DHT22;9714;51.208;4.242;2023-09-19T14:38:53;22.60;99.90
19164;DHT22;9714;51.208;4.242;2023-09-19T14:41:25;22.80;99.90
19164;DHT22;9714;51.208;4.242;2023-09-19T14:43:55;22.80;99.90
19164;DHT22;9714;51.208;4.242;2023-09-19T14:46:23;22.80;99.90
19164;DHT22;9714;51.208;4.242;2023-09-19T14:48:57;22.70;99.90
19164;DHT22;9714;51.208;4.242;2023-09-19T14:51:29;22.70;99.90
19164;DHT22;9714;51.208;4.242;2023-09-19T14:53:57;22.30;99.90
19164;DHT22;9714;51.208;4.242;2023-09-19T14:56:27;22.20;99.90
19164;DHT22;9714;51.208;4.242;2023-09-19T14:58:56;22.00;99.90
19164;DHT22;9714;51.208;4.242;2023-09-19T15:01:23;21.90;99.90
19164;DHT22;9714;51.208;4.242;2023-09-19T15:03:51;21.80;99.90
19164;DHT22;9714;51.208;4.242;2023-09-19T15:06:23;21.80;99.90
19164;DHT22;9714;51.208;4.242;2023-09-19T15:08:53;21.60;99.90
19164;DHT22;9714;51.208;4.242;2023-09-19T15:11:21;21.50;99.90
19164;DHT22;9714;51.208;4.242;2023-09-19T15:13:51;21.50;99.90
19164;DHT22;9714;51.208;4.242;2023-09-19T15:16:21;21.30;99.90
19164;DHT22;9714;51.208;4.242;2023-09-19T15:18:48;21.50;99.90
19164;DHT22;9714;51.208;4.242;2023-09-19T15:21:17;21.50;99.90
19164;DHT22;9714;51.208;4.242;2023-09-19T15:23:45;21.50;99.90
19164;DHT22;9714;51.208;4.242;2023-09-19T15:26:14;21.40;99.90
19164;DHT22;9714;51.208;4.242;2023-09-19T15:28:46;21.40;99.90
19164;DHT22;9714;51.208;4.242;2023-09-19T15:31:14;21.40;99.90
19164;DHT22;9714;51.208;4.242;2023-09-19T15:33:41;21.60;99.90
19164;DHT22;9714;51.208;4.242;2023-09-19T15:36:09;21.60;99.90
19164;DHT22;9714;51.208;4.242;2023-09-19T15:38:56;21.60;99.90
19164;DHT22;9714;51.208;4.242;2023-09-19T15:41:25;21.50;99.90
19164;DHT22;9714;51.208;4.242;2023-09-19T15:43:53;21.40;99.90
19164;DHT22;9714;51.208;4.242;2023-09-19T15:46:22;21.40;99.90
19164;DHT22;9714;51.208;4.242;2023-09-19T15:48:49;21.40;99.90
19164;DHT22;9714;51.208;4.242;2023-09-19T15:51:16;21.50;99.90
19164;DHT22;9714;51.208;4.242;2023-09-19T15:53:44;21.50;99.90
19164;DHT22;9714;51.208;4.242;2023-09-19T15:56:12;21.40;99.90
19164;DHT22;9714;51.208;4.242;2023-09-19T15:58:41;21.50;99.90
19164;DHT22;9714;51.208;4.242;2023-09-19T16:01:10;21.50;99.90
19164;DHT22;9714;51.208;4.242;2023-09-19T16:03:38;21.50;99.90
19164;DHT22;9714;51.208;4.242;2023-09-19T16:06:08;21.50;99.90
19164;DHT22;9714;51.208;4.242;2023-09-19T16:08:39;21.30;99.90
19164;DHT22;9714;51.208;4.242;2023-09-19T16:11:07;21.40;99.90
19164;DHT22;9714;51.208;4.242;2023-09-19T16:13:34;21.30;99.90
19164;DHT22;9714;51.208;4.242;2023-09-19T16:16:03;21.20;99.90
19164;DHT22;9714;51.208;4.242;2023-09-19T16:18:30;21.10;99.90
19164;DHT22;9714;51.208;4.242;2023-09-19T16:21:01;21.10;99.90
19164;DHT22;9714;51.208;4.242;2023-09-19T16:23:29;21.20;99.90
19164;DHT22;9714;51.208;4.242;2023-09-19T16:26:02;21.30;99.90
19164;DHT22;9714;51.208;4.242;2023-09-19T16:28:31;21.40;99.90